sensor_id;sensor_type;location;lat;lon;timestamp;pressure;altitude;pressure_sealevel;temperature;humidity
47530;BME280;33272;51.922;7.730;2023-02-12T00:02:10;144679.75;;;8.79;100.00
47530;BME280;33272;51.922;7.730;2023-02-12T00:04:37;144665.88;;;8.73;100.00
47530;BME280;33272;51.922;7.730;2023-02-12T00:07:06;144667.13;;;8.74;100.00
47530;BME280;33272;51.922;7.730;2023-02-12T00:09:33;144667.13;;;8.74;100.00
47530;BME280;33272;51.922;7.730;2023-02-12T00:12:00;144665.88;;;8.73;100.00
47530;BME280;33272;51.922;7.730;2023-02-12T00:14:27;144672.16;;;8.76;100.00
47530;BME280;33272;51.922;7.730;2023-02-12T00:16:54;144667.13;;;8.74;100.00
47530;BME280;33272;51.922;7.730;2023-02-12T00:19:21;144664.56;;;8.73;100.00
47530;BME280;33272;51.922;7.730;2023-02-12T00:21:48;144640.53;;;8.63;100.00
47530;BME280;33272;51.922;7.730;2023-02-12T00:24:17;144654.47;;;8.69;100.00
47530;BME280;33272;51.922;7.730;2023-02-12T00:26:43;144643.09;;;8.64;100.00
47530;BME280;33272;51.922;7.730;2023-02-12T00:29:12;144640.53;;;8.63;100.00
47530;BME280;33272;51.922;7.730;2023-02-12T00:31:39;144638.00;;;8.62;100.00
47530;BME280;33272;51.922;7.730;2023-02-12T00:34:08;144641.78;;;8.64;100.00
47530;BME280;33272;51.922;7.730;2023-02-12T00:36:35;144632.94;;;8.60;100.00
47530;BME280;33272;51.922;7.730;2023-02-12T00:39:03;144634.19;;;8.61;100.00
47530;BME280;33272;51.922;7.730;2023-02-12T00:41:31;144648.13;;;8.66;100.00
47530;BME280;33272;51.922;7.730;2023-02-12T00:43:59;144638.00;;;8.62;100.00
47530;BME280;33272;51.922;7.730;2023-02-12T00:46:26;144635.50;;;8.61;100.00
47530;BME280;33272;51.922;7.730;2023-02-12T00:48:53;144638.00;;;8.62;100.00
47530;BME280;33272;51.922;7.730;2023-02-12T00:51:20;144638.00;;;8.62;100.00
47530;BME280;33272;51.922;7.730;2023-02-12T00:53:47;144634.19;;;8.61;100.00
47530;BME280;33272;51.922;7.730;2023-02-12T00:56:14;144635.50;;;8.61;100.00
47530;BME280;33272;51.922;7.730;2023-02-12T00:58:42;144644.34;;;8.65;100.00
47530;BME280;33272;51.922;7.730;2023-02-12T01:01:09;144638.00;;;8.62;100.00
47530;BME280;33272;51.922;7.730;2023-02-12T01:03:36;144629.16;;;8.58;100.00
47530;BME280;33272;51.922;7.730;2023-02-12T01:06:04;144638.00;;;8.62;100.00
47530;BME280;33272;51.922;7.730;2023-02-12T01:08:31;144641.78;;;8.64;100.00
47530;BME280;33272;51.922;7.730;2023-02-12T01:11:01;144646.88;;;8.66;100.00
47530;BME280;33272;51.922;7.730;2023-02-12T01:13:29;144656.97;;;8.70;100.00
47530;BME280;33272;51.922;7.730;2023-02-12T01:16:07;144658.28;;;8.70;100.00
47530;BME280;33272;51.922;7.730;2023-02-12T01:18:37;144648.13;;;8.66;100.00
47530;BME280;33272;51.922;7.730;2023-02-12T01:21:10;144654.47;;;8.69;100.00
47530;BME280;33272;51.922;7.730;2023-02-12T01:23:37;144656.97;;;8.70;100.00
47530;BME280;33272;51.922;7.730;2023-02-12T01:26:04;144663.31;;;8.72;100.00
47530;BME280;33272;51.922;7.730;2023-02-12T01:28:35;144653.19;;;8.68;100.00
47530;BME280;33272;51.922;7.730;2023-02-12T01:31:09;144631.69;;;8.59;100.00
47530;BME280;33272;51.922;7.730;2023-02-12T01:33:36;144644.34;;;8.65;100.00
47530;BME280;33272;51.922;7.730;2023-02-12T01:36:04;144644.34;;;8.65;100.00
47530;BME280;33272;51.922;7.730;2023-02-12T01:38:31;144635.50;;;8.61;100.00
47530;BME280;33272;51.922;7.730;2023-02-12T01:41:02;144645.59;;;8.65;100.00
47530;BME280;33272;51.922;7.730;2023-02-12T01:43:30;144650.69;;;8.67;100.00
47530;BME280;33272;51.922;7.730;2023-02-12T01:45:59;144640.53;;;8.63;100.00
47530;BME280;33272;51.922;7.730;2023-02-12T01:48:31;144634.19;;;8.61;100.00
47530;BME280;33272;51.922;7.730;2023-02-12T01:51:01;144626.66;;;8.57;100.00
47530;BME280;33272;51.922;7.730;2023-02-12T01:53:32;144610.16;;;8.51;100.00
47530;BME280;33272;51.922;7.730;2023-02-12T01:56:02;144617.75;;;8.54;100.00
47530;BME280;33272;51.922;7.730;2023-02-12T01:58:33;144616.50;;;8.53;100.00
47530;BME280;33272;51.922;7.730;2023-02-12T02:01:03;144617.75;;;8.54;100.00
47530;BME280;33272;51.922;7.730;2023-02-12T02:03:36;144611.47;;;8.51;100.00
47530;BME280;33272;51.922;7.730;2023-02-12T02:06:09;144596.28;;;8.45;100.00
47530;BME280;33272;51.922;7.730;2023-02-12T02:08:38;144588.69;;;8.42;100.00
47530;BME280;33272;51.922;7.730;2023-02-12T02:11:06;144598.78;;;8.46;100.00
47530;BME280;33272;51.922;7.730;2023-02-12T02:13:47;144588.69;;;8.42;100.00
47530;BME280;33272;51.922;7.730;2023-02-12T02:16:35;144593.72;;;8.44;100.00
47530;BME280;33272;51.922;7.730;2023-02-12T02:19:11;144592.47;;;8.44;100.00
47530;BME280;33272;51.922;7.730;2023-02-12T02:22:14;144579.84;;;8.39;100.00
47530;BME280;33272;51.922;7.730;2023-02-12T02:28:05;144575.97;;;8.37;100.00
47530;BME280;33272;51.922;7.730;2023-02-12T02:30:42;144568.38;;;8.34;100.00
47530;BME280;33272;51.922;7.730;2023-02-12T02:33:26;144562.03;;;8.31;100.00
47530;BME280;33272;51.922;7.730;2023-02-12T02:36:04;144564.59;;;8.32;100.00
47530;BME280;33272;51.922;7.730;2023-02-12T02:38:41;144555.72;;;8.29;100.00
47530;BME280;33272;51.922;7.730;2023-02-12T02:41:16;144549.41;;;8.26;100.00
47530;BME280;33272;51.922;7.730;2023-02-12T02:43:49;144543.09;;;8.24;100.00
47530;BME280;33272;51.922;7.730;2023-02-12T02:46:24;144534.25;;;8.20;100.00
47530;BME280;33272;51.922;7.730;2023-02-12T02:48:57;144527.91;;;8.18;100.00
47530;BME280;33272;51.922;7.730;2023-02-12T02:51:30;144531.69;;;8.19;100.00
47530;BME280;33272;51.922;7.730;2023-02-12T02:54:04;144530.44;;;8.19;100.00
47530;BME280;33272;51.922;7.730;2023-02-12T02:56:38;144532.97;;;8.20;100.00
47530;BME280;33272;51.922;7.730;2023-02-12T02:59:10;144534.25;;;8.20;100.00
47530;BME280;33272;51.922;7.730;2023-02-12T03:01:43;144532.97;;;8.20;100.00
47530;BME280;33272;51.922;7.730;2023-02-12T03:04:17;144530.44;;;8.19;100.00
47530;BME280;33272;51.922;7.730;2023-02-12T03:06:53;144527.91;;;8.18;100.00
47530;BME280;33272;51.922;7.730;2023-02-12T03:09:26;144527.91;;;8.18;100.00
47530;BME280;33272;51.922;7.730;2023-02-12T03:12:00;144531.69;;;8.19;100.00
47530;BME280;33272;51.922;7.730;2023-02-12T03:14:31;144535.50;;;8.21;100.00
47530;BME280;33272;51.922;7.730;2023-02-12T03:17:06;144532.97;;;8.20;100.00
47530;BME280;33272;51.922;7.730;2023-02-12T03:19:38;144529.16;;;8.18;100.00
47530;BME280;33272;51.922;7.730;2023-02-12T03:22:10;144529.16;;;8.18;100.00
47530;BME280;33272;51.922;7.730;2023-02-12T03:24:43;144529.16;;;8.18;100.00
47530;BME280;33272;51.922;7.730;2023-02-12T03:27:18;144527.91;;;8.18;100.00
47530;BME280;33272;51.922;7.730;2023-02-12T03:29:46;144534.25;;;8.20;100.00
47530;BME280;33272;51.922;7.730;2023-02-12T03:32:26;144536.75;;;8.21;100.00
47530;BME280;33272;51.922;7.730;2023-02-12T03:35:08;144538.00;;;8.22;100.00
47530;BME280;33272;51.922;7.730;2023-02-12T03:37:40;144545.59;;;8.25;100.00
47530;BME280;33272;51.922;7.730;2023-02-12T03:40:16;144543.09;;;8.24;100.00
47530;BME280;33272;51.922;7.730;2023-02-12T03:42:50;144530.44;;;8.19;100.00
47530;BME280;33272;51.922;7.730;2023-02-12T03:45:34;144530.44;;;8.19;100.00
47530;BME280;33272;51.922;7.730;2023-02-12T03:48:08;144516.50;;;8.13;100.00
47530;BME280;33272;51.922;7.730;2023-02-12T03:50:43;144520.31;;;8.15;100.00
47530;BME280;33272;51.922;7.730;2023-02-12T03:53:13;144524.09;;;8.16;100.00
47530;BME280;33272;51.922;7.730;2023-02-12T03:55:42;144527.91;;;8.18;100.00
47530;BME280;33272;51.922;7.730;2023-02-12T03:58:17;144517.81;;;8.13;100.00
47530;BME280;33272;51.922;7.730;2023-02-12T04:00:45;144513.97;;;8.12;100.00
47530;BME280;33272;51.922;7.730;2023-02-12T04:03:14;144515.25;;;8.12;100.00
47530;BME280;33272;51.922;7.730;2023-02-12T04:05:41;144517.81;;;8.13;100.00
47530;BME280;33272;51.922;7.730;2023-02-12T04:08:09;144521.56;;;8.15;100.00
47530;BME280;33272;51.922;7.730;2023-02-12T04:10:50;144506.41;;;8.09;100.00
47530;BME280;33272;51.922;7.730;2023-02-12T04:13:25;144496.28;;;8.05;100.00
47530;BME280;33272;51.922;7.730;2023-02-12T04:16:06;144497.56;;;8.05;100.00
47530;BME280;33272;51.922;7.730;2023-02-12T04:18:43;144507.66;;;8.09;100.00
47530;BME280;33272;51.922;7.730;2023-02-12T04:21:19;144517.81;;;8.13;100.00
47530;BME280;33272;51.922;7.730;2023-02-12T04:24:00;144516.50;;;8.13;100.00
47530;BME280;33272;51.922;7.730;2023-02-12T04:26:38;144526.66;;;8.17;100.00
47530;BME280;33272;51.922;7.730;2023-02-12T04:29:17;144527.91;;;8.18;100.00
47530;BME280;33272;51.922;7.730;2023-02-12T04:31:54;144531.69;;;8.19;100.00
47530;BME280;33272;51.922;7.730;2023-02-12T04:34:28;144534.25;;;8.20;100.00
47530;BME280;33272;51.922;7.730;2023-02-12T04:37:03;144539.28;;;8.22;100.00
47530;BME280;33272;51.922;7.730;2023-02-12T04:39:34;144539.28;;;8.22;100.00
47530;BME280;33272;51.922;7.730;2023-02-12T04:42:02;144534.25;;;8.20;100.00
47530;BME280;33272;51.922;7.730;2023-02-12T04:44:31;144531.69;;;8.19;100.00
47530;BME280;33272;51.922;7.730;2023-02-12T04:46:59;144535.50;;;8.21;100.00
47530;BME280;33272;51.922;7.730;2023-02-12T04:49:28;144534.25;;;8.20;100.00
47530;BME280;33272;51.922;7.730;2023-02-12T04:51:55;144536.75;;;8.21;100.00
47530;BME280;33272;51.922;7.730;2023-02-12T04:54:22;144539.28;;;8.22;100.00
47530;BME280;33272;51.922;7.730;2023-02-12T04:56:50;144548.13;;;8.26;100.00
47530;BME280;33272;51.922;7.730;2023-02-12T04:59:17;144548.13;;;8.26;100.00
47530;BME280;33272;51.922;7.730;2023-02-12T05:01:45;144550.69;;;8.27;100.00
47530;BME280;33272;51.922;7.730;2023-02-12T05:04:14;144553.19;;;8.28;100.00
47530;BME280;33272;51.922;7.730;2023-02-12T05:06:44;144554.44;;;8.28;100.00
47530;BME280;33272;51.922;7.730;2023-02-12T05:09:15;144548.13;;;8.26;100.00
47530;BME280;33272;51.922;7.730;2023-02-12T05:11:43;144549.41;;;8.26;100.00
47530;BME280;33272;51.922;7.730;2023-02-12T05:14:11;144549.41;;;8.26;100.00
47530;BME280;33272;51.922;7.730;2023-02-12T05:16:38;144545.59;;;8.25;100.00
47530;BME280;33272;51.922;7.730;2023-02-12T05:19:05;144529.16;;;8.18;100.00
47530;BME280;33272;51.922;7.730;2023-02-12T05:21:34;144517.81;;;8.13;100.00
47530;BME280;33272;51.922;7.730;2023-02-12T05:24:03;144519.06;;;8.14;100.00
47530;BME280;33272;51.922;7.730;2023-02-12T05:26:30;144513.97;;;8.12;100.00
47530;BME280;33272;51.922;7.730;2023-02-12T05:28:57;144512.72;;;8.11;100.00
47530;BME280;33272;51.922;7.730;2023-02-12T05:31:24;144512.72;;;8.11;100.00
47530;BME280;33272;51.922;7.730;2023-02-12T05:33:51;144517.81;;;8.13;100.00
47530;BME280;33272;51.922;7.730;2023-02-12T05:36:21;144519.06;;;8.14;100.00
47530;BME280;33272;51.922;7.730;2023-02-12T05:38:51;144525.41;;;8.17;100.00
47530;BME280;33272;51.922;7.730;2023-02-12T05:41:24;144519.06;;;8.14;100.00
47530;BME280;33272;51.922;7.730;2023-02-12T05:43:51;144517.81;;;8.13;100.00
47530;BME280;33272;51.922;7.730;2023-02-12T05:46:21;144503.88;;;8.08;100.00
47530;BME280;33272;51.922;7.730;2023-02-12T05:48:48;144493.72;;;8.04;100.00
47530;BME280;33272;51.922;7.730;2023-02-12T05:51:18;144495.03;;;8.04;100.00
47530;BME280;33272;51.922;7.730;2023-02-12T05:53:47;144491.22;;;8.03;100.00
47530;BME280;33272;51.922;7.730;2023-02-12T05:56:17;144492.47;;;8.03;100.00
47530;BME280;33272;51.922;7.730;2023-02-12T05:58:50;144495.03;;;8.04;100.00
47530;BME280;33272;51.922;7.730;2023-02-12T06:01:21;144486.19;;;8.01;100.00
47530;BME280;33272;51.922;7.730;2023-02-12T06:03:48;144488.69;;;8.02;100.00
47530;BME280;33272;51.922;7.730;2023-02-12T06:06:15;144489.97;;;8.02;100.00
47530;BME280;33272;51.922;7.730;2023-02-12T06:08:43;144483.63;;;8.00;100.00
47530;BME280;33272;51.922;7.730;2023-02-12T06:11:14;144474.78;;;7.96;100.00
47530;BME280;33272;51.922;7.730;2023-02-12T06:13:41;144469.72;;;7.94;100.00
47530;BME280;33272;51.922;7.730;2023-02-12T06:16:17;144454.53;;;7.88;100.00
47530;BME280;33272;51.922;7.730;2023-02-12T06:18:45;144460.84;;;7.90;100.00
47530;BME280;33272;51.922;7.730;2023-02-12T06:21:13;144459.59;;;7.90;100.00
47530;BME280;33272;51.922;7.730;2023-02-12T06:23:41;144453.28;;;7.87;100.00
47530;BME280;33272;51.922;7.730;2023-02-12T06:26:08;144458.34;;;7.89;100.00
47530;BME280;33272;51.922;7.730;2023-02-12T06:28:35;144460.84;;;7.90;100.00
47530;BME280;33272;51.922;7.730;2023-02-12T06:31:02;144465.94;;;7.93;100.00
47530;BME280;33272;51.922;7.730;2023-02-12T06:33:31;144458.34;;;7.89;100.00
47530;BME280;33272;51.922;7.730;2023-02-12T06:36:02;144459.59;;;7.90;100.00
47530;BME280;33272;51.922;7.730;2023-02-12T06:38:30;144460.84;;;7.90;100.00
47530;BME280;33272;51.922;7.730;2023-02-12T06:41:00;144469.72;;;7.94;100.00
47530;BME280;33272;51.922;7.730;2023-02-12T06:43:27;144459.59;;;7.90;100.00
47530;BME280;33272;51.922;7.730;2023-02-12T06:45:54;144447.00;;;7.85;100.00
47530;BME280;33272;51.922;7.730;2023-02-12T06:48:21;144444.44;;;7.84;100.00
47530;BME280;33272;51.922;7.730;2023-02-12T06:50:49;144436.84;;;7.81;100.00
47530;BME280;33272;51.922;7.730;2023-02-12T06:53:16;144438.09;;;7.81;100.00
47530;BME280;33272;51.922;7.730;2023-02-12T06:55:43;144443.16;;;7.83;100.00
47530;BME280;33272;51.922;7.730;2023-02-12T06:58:10;144447.00;;;7.85;100.00
47530;BME280;33272;51.922;7.730;2023-02-12T07:00:37;144457.09;;;7.89;100.00
47530;BME280;33272;51.922;7.730;2023-02-12T07:03:04;144462.13;;;7.91;100.00
47530;BME280;33272;51.922;7.730;2023-02-12T07:05:31;144460.84;;;7.90;100.00
47530;BME280;33272;51.922;7.730;2023-02-12T07:08:03;144444.44;;;7.84;100.00
47530;BME280;33272;51.922;7.730;2023-02-12T07:10:30;144450.75;;;7.86;100.00
47530;BME280;33272;51.922;7.730;2023-02-12T07:12:57;144454.53;;;7.88;100.00
47530;BME280;33272;51.922;7.730;2023-02-12T07:15:24;144452.00;;;7.87;100.00
47530;BME280;33272;51.922;7.730;2023-02-12T07:17:51;144457.09;;;7.89;100.00
47530;BME280;33272;51.922;7.730;2023-02-12T07:20:19;144458.34;;;7.89;100.00
47530;BME280;33272;51.922;7.730;2023-02-12T07:22:46;144457.09;;;7.89;100.00
47530;BME280;33272;51.922;7.730;2023-02-12T07:25:14;144462.13;;;7.91;100.00
47530;BME280;33272;51.922;7.730;2023-02-12T07:27:41;144473.53;;;7.96;100.00
47530;BME280;33272;51.922;7.730;2023-02-12T07:30:09;144478.59;;;7.98;100.00
47530;BME280;33272;51.922;7.730;2023-02-12T07:32:36;144486.19;;;8.01;100.00
47530;BME280;33272;51.922;7.730;2023-02-12T07:35:04;144496.28;;;8.05;100.00
47530;BME280;33272;51.922;7.730;2023-02-12T07:37:32;144507.66;;;8.09;100.00
47530;BME280;33272;51.922;7.730;2023-02-12T07:39:59;144520.31;;;8.15;100.00
47530;BME280;33272;51.922;7.730;2023-02-12T07:42:28;144522.84;;;8.16;100.00
47530;BME280;33272;51.922;7.730;2023-02-12T07:44:55;144525.41;;;8.17;100.00
47530;BME280;33272;51.922;7.730;2023-02-12T07:47:22;144536.75;;;8.21;100.00
47530;BME280;33272;51.922;7.730;2023-02-12T07:49:49;144541.84;;;8.23;100.00
47530;BME280;33272;51.922;7.730;2023-02-12T07:52:16;144546.84;;;8.25;100.00
47530;BME280;33272;51.922;7.730;2023-02-12T07:54:43;144527.91;;;8.18;100.00
47530;BME280;33272;51.922;7.730;2023-02-12T07:57:10;144535.50;;;8.21;100.00
47530;BME280;33272;51.922;7.730;2023-02-12T07:59:39;144534.25;;;8.20;100.00
47530;BME280;33272;51.922;7.730;2023-02-12T08:02:06;144550.69;;;8.27;100.00
47530;BME280;33272;51.922;7.730;2023-02-12T08:04:33;144553.19;;;8.28;100.00
47530;BME280;33272;51.922;7.730;2023-02-12T08:07:00;144577.22;;;8.38;100.00
47530;BME280;33272;51.922;7.730;2023-02-12T08:09:28;144598.78;;;8.46;100.00
47530;BME280;33272;51.922;7.730;2023-02-12T08:11:56;144617.75;;;8.54;100.00
47530;BME280;33272;51.922;7.730;2023-02-12T08:14:25;144617.75;;;8.54;100.00
47530;BME280;33272;51.922;7.730;2023-02-12T08:16:53;144624.09;;;8.56;100.00
47530;BME280;33272;51.922;7.730;2023-02-12T08:19:21;144627.91;;;8.58;100.00
47530;BME280;33272;51.922;7.730;2023-02-12T08:21:49;144656.97;;;8.70;100.00
47530;BME280;33272;51.922;7.730;2023-02-12T08:24:16;144659.53;;;8.71;100.00
47530;BME280;33272;51.922;7.730;2023-02-12T08:26:43;144673.47;;;8.76;100.00
47530;BME280;33272;51.922;7.730;2023-02-12T08:29:13;144693.69;;;8.85;100.00
47530;BME280;33272;51.922;7.730;2023-02-12T08:31:43;144705.09;;;8.89;100.00
47530;BME280;33272;51.922;7.730;2023-02-12T08:34:17;144715.22;;;8.93;100.00
47530;BME280;33272;51.922;7.730;2023-02-12T08:36:46;144739.25;;;9.03;100.00
47530;BME280;33272;51.922;7.730;2023-02-12T08:39:15;144743.03;;;9.04;100.00
47530;BME280;33272;51.922;7.730;2023-02-12T08:41:42;144777.25;;;9.18;100.00
47530;BME280;33272;51.922;7.730;2023-02-12T08:44:10;144802.53;;;9.28;100.00
47530;BME280;33272;51.922;7.730;2023-02-12T08:46:39;144819.00;;;9.35;100.00
47530;BME280;33272;51.922;7.730;2023-02-12T08:49:12;144832.94;;;9.41;100.00
47530;BME280;33272;51.922;7.730;2023-02-12T08:51:42;144849.41;;;9.47;100.00
47530;BME280;33272;51.922;7.730;2023-02-12T08:54:13;144859.50;;;9.51;100.00
47530;BME280;33272;51.922;7.730;2023-02-12T08:56:41;144846.88;;;9.46;100.00
47530;BME280;33272;51.922;7.730;2023-02-12T08:59:10;144867.09;;;9.55;100.00
47530;BME280;33272;51.922;7.730;2023-02-12T09:01:38;144893.72;;;9.65;100.00
47530;BME280;33272;51.922;7.730;2023-02-12T09:04:07;144906.38;;;9.70;100.00
47530;BME280;33272;51.922;7.730;2023-02-12T09:06:34;144920.31;;;9.76;100.00
47530;BME280;33272;51.922;7.730;2023-02-12T09:09:03;144933.00;;;9.81;100.00
47530;BME280;33272;51.922;7.730;2023-02-12T09:11:33;144936.78;;;9.83;100.00
47530;BME280;33272;51.922;7.730;2023-02-12T09:14:04;144930.44;;;9.80;100.00
47530;BME280;33272;51.922;7.730;2023-02-12T09:16:34;144924.13;;;9.78;100.00
47530;BME280;33272;51.922;7.730;2023-02-12T09:19:01;144929.16;;;9.80;100.00
47530;BME280;33272;51.922;7.730;2023-02-12T09:21:28;144915.22;;;9.74;100.00
47530;BME280;33272;51.922;7.730;2023-02-12T09:23:56;144922.81;;;9.77;100.00
47530;BME280;33272;51.922;7.730;2023-02-12T09:26:24;144948.19;;;9.87;100.00
47530;BME280;33272;51.922;7.730;2023-02-12T09:28:52;144922.81;;;9.77;100.00
47530;BME280;33272;51.922;7.730;2023-02-12T09:31:22;144958.31;;;9.91;100.00
47530;BME280;33272;51.922;7.730;2023-02-12T09:33:51;144973.53;;;9.97;100.00
47530;BME280;33272;51.922;7.730;2023-02-12T09:36:19;145015.31;;;10.14;100.00
47530;BME280;33272;51.922;7.730;2023-02-12T09:38:46;145053.38;;;10.30;100.00
47530;BME280;33272;51.922;7.730;2023-02-12T09:44:43;145072.41;;;10.37;100.00
47530;BME280;33272;51.922;7.730;2023-02-12T09:47:16;145096.50;;;10.47;100.00
47530;BME280;33272;51.922;7.730;2023-02-12T09:50:08;145109.13;;;10.52;100.00
47530;BME280;33272;51.922;7.730;2023-02-12T09:52:38;145112.94;;;10.54;100.00
47530;BME280;33272;51.922;7.730;2023-02-12T09:55:06;145120.56;;;10.57;100.00
47530;BME280;33272;51.922;7.730;2023-02-12T09:57:37;145152.25;;;10.70;100.00
47530;BME280;33272;51.922;7.730;2023-02-12T10:00:08;145173.81;;;10.78;100.00
47530;BME280;33272;51.922;7.730;2023-02-12T10:02:37;145156.03;;;10.71;100.00
47530;BME280;33272;51.922;7.730;2023-02-12T10:05:13;145145.91;;;10.67;100.00
47530;BME280;33272;51.922;7.730;2023-02-12T10:08:01;145164.88;;;10.75;100.00
47530;BME280;33272;51.922;7.730;2023-02-12T10:10:45;145199.16;;;10.88;100.00
47530;BME280;33272;51.922;7.730;2023-02-12T10:13:28;145243.50;;;11.06;100.00
47530;BME280;33272;51.922;7.730;2023-02-12T10:16:09;145276.50;;;11.20;100.00
47530;BME280;33272;51.922;7.730;2023-02-12T10:19:02;145299.31;;;11.29;100.00
47530;BME280;33272;51.922;7.730;2023-02-12T10:21:47;145325.94;;;11.40;100.00
47530;BME280;33272;51.922;7.730;2023-02-12T10:24:35;145347.50;;;11.48;100.00
47530;BME280;33272;51.922;7.730;2023-02-12T10:27:12;145371.63;;;11.58;100.00
47530;BME280;33272;51.922;7.730;2023-02-12T10:29:40;145386.84;;;11.64;100.00
47530;BME280;33272;51.922;7.730;2023-02-12T10:32:22;145396.97;;;11.68;100.00
47530;BME280;33272;51.922;7.730;2023-02-12T10:34:53;145431.22;;;11.82;100.00
47530;BME280;33272;51.922;7.730;2023-02-12T10:37:29;145440.19;;;11.86;100.00
47530;BME280;33272;51.922;7.730;2023-02-12T10:40:02;145435.03;;;11.83;100.00
47530;BME280;33272;51.922;7.730;2023-02-12T10:42:37;145438.88;;;11.85;100.00
47530;BME280;33272;51.922;7.730;2023-02-12T10:45:11;145447.78;;;11.89;100.00
47530;BME280;33272;51.922;7.730;2023-02-12T10:47:41;145447.78;;;11.89;100.00
47530;BME280;33272;51.922;7.730;2023-02-12T10:50:19;145450.31;;;11.90;100.00
47530;BME280;33272;51.922;7.730;2023-02-12T10:52:52;145452.84;;;11.91;100.00
47530;BME280;33272;51.922;7.730;2023-02-12T10:55:28;145441.44;;;11.86;100.00
47530;BME280;33272;51.922;7.730;2023-02-12T10:57:58;145432.50;;;11.82;100.00
47530;BME280;33272;51.922;7.730;2023-02-12T11:00:30;145436.31;;;11.84;100.00
47530;BME280;33272;51.922;7.730;2023-02-12T11:03:16;145461.72;;;11.94;100.00
47530;BME280;33272;51.922;7.730;2023-02-12T11:05:54;145457.94;;;11.93;100.00
47530;BME280;33272;51.922;7.730;2023-02-12T11:08:32;145471.91;;;11.98;100.00
47530;BME280;33272;51.922;7.730;2023-02-12T11:11:05;145443.97;;;11.87;100.00
47530;BME280;33272;51.922;7.730;2023-02-12T11:13:35;145443.97;;;11.87;100.00
47530;BME280;33272;51.922;7.730;2023-02-12T11:16:03;145442.69;;;11.87;100.00
47530;BME280;33272;51.922;7.730;2023-02-12T11:18:33;145454.09;;;11.91;100.00
47530;BME280;33272;51.922;7.730;2023-02-12T11:21:04;145452.84;;;11.91;100.00
47530;BME280;33272;51.922;7.730;2023-02-12T11:23:34;145443.97;;;11.87;100.00
47530;BME280;33272;51.922;7.730;2023-02-12T11:26:23;145412.19;;;11.74;100.00
47530;BME280;33272;51.922;7.730;2023-02-12T11:28:54;145431.22;;;11.82;100.00
47530;BME280;33272;51.922;7.730;2023-02-12T11:31:25;145446.47;;;11.88;100.00
47530;BME280;33272;51.922;7.730;2023-02-12T11:34:13;145437.59;;;11.85;100.00
47530;BME280;33272;51.922;7.730;2023-02-12T11:36:43;145471.91;;;11.98;100.00
47530;BME280;33272;51.922;7.730;2023-02-12T11:39:19;145461.72;;;11.94;100.00
47530;BME280;33272;51.922;7.730;2023-02-12T11:41:51;145504.88;;;12.12;100.00
47530;BME280;33272;51.922;7.730;2023-02-12T11:44:23;145540.38;;;12.26;100.00
47530;BME280;33272;51.922;7.730;2023-02-12T11:46:55;145560.72;;;12.34;100.00
47530;BME280;33272;51.922;7.730;2023-02-12T11:49:28;145583.56;;;12.43;100.00
47530;BME280;33272;51.922;7.730;2023-02-12T11:51:58;145607.69;;;12.53;100.00
47530;BME280;33272;51.922;7.730;2023-02-12T11:54:29;145635.63;;;12.64;100.00
47530;BME280;33272;51.922;7.730;2023-02-12T11:56:58;145650.88;;;12.70;100.00
47530;BME280;33272;51.922;7.730;2023-02-12T11:59:34;145664.81;;;12.76;100.00
47530;BME280;33272;51.922;7.730;2023-02-12T12:02:15;145631.81;;;12.63;100.00
47530;BME280;33272;51.922;7.730;2023-02-12T12:04:49;145655.91;;;12.72;100.00
47530;BME280;33272;51.922;7.730;2023-02-12T12:07:23;145663.53;;;12.75;100.00
47530;BME280;33272;51.922;7.730;2023-02-12T12:09:57;145652.13;;;12.71;100.00
47530;BME280;33272;51.922;7.730;2023-02-12T12:12:35;145645.78;;;12.68;100.00
47530;BME280;33272;51.922;7.730;2023-02-12T12:15:10;145664.81;;;12.76;100.00
47530;BME280;33272;51.922;7.730;2023-02-12T12:18:08;145683.88;;;12.84;100.00
47530;BME280;33272;51.922;7.730;2023-02-12T12:21:03;145711.78;;;12.95;100.00
47530;BME280;33272;51.922;7.730;2023-02-12T12:23:37;145728.28;;;13.02;100.00
47530;BME280;33272;51.922;7.730;2023-02-12T12:26:10;145735.91;;;13.05;100.00
47530;BME280;33272;51.922;7.730;2023-02-12T12:28:44;145753.72;;;13.12;100.00
47530;BME280;33272;51.922;7.730;2023-02-12T12:31:17;145747.38;;;13.09;100.00
47530;BME280;33272;51.922;7.730;2023-02-12T12:33:48;145749.88;;;13.10;100.00
47530;BME280;33272;51.922;7.730;2023-02-12T12:36:55;145748.63;;;13.10;100.00
47530;BME280;33272;51.922;7.730;2023-02-12T12:39:33;145770.22;;;13.18;100.00
47530;BME280;33272;51.922;7.730;2023-02-12T12:48:21;145741.00;;;13.07;100.00
47530;BME280;33272;51.922;7.730;2023-02-12T12:51:08;145734.66;;;13.04;100.00
47530;BME280;33272;51.922;7.730;2023-02-12T12:53:54;145741.00;;;13.07;100.00
47530;BME280;33272;51.922;7.730;2023-02-12T12:56:41;145752.41;;;13.11;100.00
47530;BME280;33272;51.922;7.730;2023-02-12T12:59:49;145730.84;;;13.03;100.00
47530;BME280;33272;51.922;7.730;2023-02-12T13:09:32;145691.50;;;12.87;100.00
47530;BME280;33272;51.922;7.730;2023-02-12T13:15:26;145673.69;;;12.80;100.00
47530;BME280;33272;51.922;7.730;2023-02-12T13:18:04;145682.63;;;12.83;100.00
47530;BME280;33272;51.922;7.730;2023-02-12T13:20:44;145700.38;;;12.90;100.00
47530;BME280;33272;51.922;7.730;2023-02-12T13:23:15;145671.16;;;12.79;100.00
47530;BME280;33272;51.922;7.730;2023-02-12T13:25:56;145673.69;;;12.80;100.00
47530;BME280;33272;51.922;7.730;2023-02-12T13:28:33;145682.63;;;12.83;100.00
47530;BME280;33272;51.922;7.730;2023-02-12T13:31:03;145710.53;;;12.94;100.00
47530;BME280;33272;51.922;7.730;2023-02-12T13:33:40;145721.97;;;12.99;100.00
47530;BME280;33272;51.922;7.730;2023-02-12T13:36:10;145714.34;;;12.96;100.00